createdAt,value
2022-09-28T00:00:47.006Z,13.32
2022-09-28T00:04:50.002Z,21.83
2022-09-28T00:08:52.928Z,13.13
2022-09-28T00:12:57.646Z,16.92
2022-09-28T00:17:00.691Z,21.40
2022-09-28T00:21:11.773Z,16.65
2022-09-28T00:25:16.939Z,13.13
2022-09-28T00:29:34.562Z,12.85
2022-09-28T00:33:46.674Z,11.82
2022-09-28T00:37:50.542Z,18.55
2022-09-28T00:41:54.374Z,16.00
2022-09-28T00:50:31.167Z,11.43
2022-09-28T00:54:37.207Z,20.23
2022-09-28T00:58:46.871Z,12.90
2022-09-28T01:02:50.212Z,13.88
2022-09-28T01:06:53.602Z,13.57
2022-09-28T01:10:59.392Z,18.85
2022-09-28T01:15:05.691Z,15.30
2022-09-28T01:19:40.010Z,12.98
2022-09-28T01:24:22.266Z,12.32
2022-09-28T01:28:28.769Z,9.80
2022-09-28T01:32:51.216Z,14.30
2022-09-28T01:36:58.969Z,12.55
2022-09-28T01:41:04.416Z,18.90
2022-09-28T01:45:14.603Z,14.85
2022-09-28T01:49:27.403Z,9.68
2022-09-28T01:53:43.200Z,13.50
2022-09-28T01:58:01.952Z,9.68
2022-09-28T02:02:13.203Z,13.65
2022-09-28T02:06:22.935Z,23.23
2022-09-28T02:10:33.572Z,15.23
2022-09-28T02:14:40.846Z,24.02
2022-09-28T02:18:45.298Z,21.92
2022-09-28T02:22:53.483Z,15.57
2022-09-28T02:26:59.642Z,21.73
2022-09-28T02:31:07.569Z,19.08
2022-09-28T02:35:13.382Z,21.33
2022-09-28T02:39:18.169Z,12.20
2022-09-28T02:43:31.271Z,16.42
2022-09-28T02:48:10.093Z,15.73
2022-09-28T02:52:43.329Z,20.73
2022-09-28T02:57:24.218Z,14.85
2022-09-28T03:01:35.487Z,11.65
2022-09-28T03:05:41.484Z,21.73
2022-09-28T03:09:56.502Z,15.43
2022-09-28T03:14:00.403Z,17.55
2022-09-28T03:18:13.143Z,19.90
2022-09-28T03:22:17.624Z,19.20
2022-09-28T03:26:24.066Z,18.67
2022-09-28T03:30:27.024Z,19.00
2022-09-28T03:34:33.266Z,15.80
2022-09-28T03:38:36.225Z,15.85
2022-09-28T03:42:39.162Z,12.65
2022-09-28T03:46:42.226Z,13.32
2022-09-28T03:50:45.519Z,13.43
2022-09-28T03:54:49.359Z,15.13
2022-09-28T03:58:53.536Z,16.77
2022-09-28T04:02:56.419Z,15.40
2022-09-28T04:06:59.767Z,15.00
2022-09-28T04:11:02.655Z,12.65
2022-09-28T04:15:06.401Z,16.35
2022-09-28T04:19:09.879Z,15.40
2022-09-28T04:23:47.140Z,15.35
2022-09-28T04:28:09.237Z,21.58
2022-09-28T04:32:21.521Z,15.68
2022-09-28T04:36:25.862Z,10.02
2022-09-28T04:40:37.085Z,11.63
2022-09-28T04:44:40.355Z,14.70
2022-09-28T04:48:47.789Z,15.45
2022-09-28T04:53:10.431Z,13.95
2022-09-28T04:57:13.499Z,10.95
2022-09-28T05:01:19.932Z,17.15
2022-09-28T05:05:57.697Z,13.63
2022-09-28T05:14:39.285Z,18.13
2022-09-28T05:18:47.180Z,12.43
2022-09-28T05:22:52.206Z,13.32
2022-09-28T05:26:55.148Z,24.63
2022-09-28T05:31:05.740Z,10.23
2022-09-28T05:39:44.651Z,15.63
2022-09-28T05:43:48.448Z,10.57
2022-09-28T05:47:54.057Z,15.57
2022-09-28T05:52:02.323Z,18.27
2022-09-28T05:56:06.461Z,12.98
2022-09-28T06:00:14.337Z,17.98
2022-09-28T06:13:22.275Z,11.80
2022-09-28T06:17:29.477Z,10.90
2022-09-28T06:30:38.825Z,17.75
2022-09-28T06:39:02.874Z,7.65
2022-09-28T07:05:50.365Z,16.95
2022-09-28T07:23:50.327Z,10.20
2022-09-28T08:03:59.948Z,11.73
2022-09-28T08:08:11.099Z,12.95
2022-09-28T08:21:46.970Z,12.35
2022-09-28T08:25:54.297Z,14.20
2022-09-28T08:29:59.499Z,14.15
2022-09-28T08:39:34.967Z,19.73
2022-09-28T08:44:14.358Z,15.50
2022-09-28T08:57:57.619Z,15.02
2022-09-28T09:06:45.087Z,12.60
2022-09-28T09:21:18.176Z,12.98
2022-09-28T09:29:50.898Z,14.73
2022-09-28T09:34:15.098Z,15.35
2022-09-28T09:38:27.970Z,13.10
2022-09-28T09:43:21.207Z,13.80
2022-09-28T09:47:45.706Z,18.52
2022-09-28T09:52:24.159Z,11.35
2022-09-28T09:56:46.505Z,14.20
2022-09-28T10:00:58.422Z,10.80
2022-09-28T10:09:35.355Z,15.32
2022-09-28T10:13:55.421Z,9.98
2022-09-28T10:18:21.662Z,14.57
2022-09-28T10:23:08.033Z,12.70
2022-09-28T10:27:32.359Z,15.73
2022-09-28T10:31:52.695Z,18.05
2022-09-28T10:36:06.768Z,12.75
2022-09-28T10:40:45.549Z,10.73
2022-09-28T10:44:57.543Z,14.38
2022-09-28T10:49:20.004Z,15.60
2022-09-28T10:53:34.563Z,16.70
2022-09-28T11:03:27.174Z,15.85
2022-09-28T11:07:44.314Z,14.65
2022-09-28T11:11:49.912Z,20.58
2022-09-28T11:15:54.003Z,16.67
2022-09-28T11:20:43.658Z,13.63
2022-09-28T11:25:12.647Z,13.35
2022-09-28T11:29:36.790Z,13.05
2022-09-28T11:34:31.418Z,16.10
2022-09-28T11:39:03.797Z,16.02
2022-09-28T11:48:29.142Z,11.43
2022-09-28T11:52:44.555Z,12.95
2022-09-28T11:56:58.248Z,15.75
2022-09-28T12:01:37.398Z,11.55
2022-09-28T12:06:37.086Z,16.57
2022-09-28T12:11:10.899Z,12.82
2022-09-28T12:20:50.574Z,9.70
2022-09-28T12:24:58.375Z,14.20
2022-09-28T12:29:13.684Z,11.95
2022-09-28T12:33:17.222Z,13.25
2022-09-28T12:37:28.445Z,16.55
2022-09-28T12:41:56.195Z,14.77
2022-09-28T12:46:33.131Z,11.48
2022-09-28T12:50:49.926Z,11.38
2022-09-28T12:55:06.611Z,15.93
2022-09-28T12:59:31.833Z,17.50
2022-09-28T13:04:03.414Z,15.55
2022-09-28T13:08:42.275Z,18.38
2022-09-28T13:13:18.331Z,14.48
2022-09-28T13:17:56.985Z,17.65
2022-09-28T13:22:43.553Z,18.90
2022-09-28T13:26:50.124Z,14.68
2022-09-28T13:30:55.083Z,12.88
2022-09-28T13:35:05.605Z,12.70
2022-09-28T13:39:40.018Z,15.98
2022-09-28T13:44:18.008Z,12.55
2022-09-28T13:48:27.769Z,14.38
2022-09-28T13:52:57.636Z,14.63
2022-09-28T13:57:37.413Z,14.43
2022-09-28T14:01:48.675Z,12.25
2022-09-28T14:06:24.228Z,11.85
2022-09-28T14:10:52.313Z,10.55
2022-09-28T14:19:37.438Z,10.48
2022-09-28T14:23:59.021Z,7.50
2022-09-28T14:28:38.972Z,6.97
2022-09-28T14:32:49.530Z,5.60
2022-09-28T14:37:11.213Z,10.00
2022-09-28T14:41:18.183Z,6.63
2022-09-28T14:45:35.623Z,7.00
2022-09-28T14:50:03.322Z,7.68
2022-09-28T14:54:26.477Z,10.20
2022-09-28T14:58:41.688Z,12.85
2022-09-28T15:02:50.333Z,9.45
2022-09-28T15:06:53.465Z,9.77
2022-09-28T15:10:58.901Z,10.27
2022-09-28T15:15:08.825Z,11.02
2022-09-28T15:28:19.796Z,8.70
2022-09-28T15:32:27.686Z,6.93
2022-09-28T15:36:51.564Z,6.53
2022-09-28T15:40:58.865Z,7.90
2022-09-28T15:45:29.178Z,7.18
2022-09-28T15:54:25.189Z,8.77
2022-09-28T16:08:28.820Z,7.10
2022-09-28T16:12:39.422Z,9.77
2022-09-28T16:16:52.398Z,5.93
2022-09-28T16:21:03.301Z,6.47
2022-09-28T16:25:17.593Z,11.50
2022-09-28T16:29:42.842Z,9.82
2022-09-28T16:38:34.817Z,5.75
2022-09-28T16:42:49.129Z,8.32
2022-09-28T16:46:58.311Z,10.65
2022-09-28T16:51:01.996Z,8.77
2022-09-28T16:59:44.191Z,9.88
2022-09-28T17:03:49.127Z,9.68
2022-09-28T17:08:03.748Z,11.48
2022-09-28T17:12:17.626Z,5.72
2022-09-28T17:16:42.958Z,8.05
2022-09-28T17:20:50.807Z,8.43
2022-09-28T17:24:55.070Z,7.10
2022-09-28T17:28:59.635Z,15.13
2022-09-28T17:33:06.391Z,16.10
2022-09-28T17:37:14.800Z,10.30
2022-09-28T17:41:21.881Z,9.55
2022-09-28T17:45:28.752Z,11.85
2022-09-28T17:49:31.694Z,9.68
2022-09-28T17:53:36.705Z,10.45
2022-09-28T18:02:03.699Z,8.90
2022-09-28T18:06:18.147Z,13.98
2022-09-28T18:10:25.141Z,9.70
2022-09-28T18:14:31.300Z,8.70
2022-09-28T18:18:39.192Z,8.05
2022-09-28T18:22:45.721Z,8.88
2022-09-28T18:26:50.287Z,8.85
2022-09-28T18:30:55.334Z,10.05
2022-09-28T18:35:01.535Z,10.02
2022-09-28T18:39:06.676Z,12.30
2022-09-28T18:43:12.785Z,11.63
2022-09-28T18:47:16.125Z,11.07
2022-09-28T18:51:24.385Z,11.63
2022-09-28T18:55:31.934Z,10.30
2022-09-28T18:59:36.402Z,8.77
2022-09-28T19:03:41.593Z,9.60
2022-09-28T19:07:48.943Z,9.95
2022-09-28T19:11:54.453Z,10.52
2022-09-28T19:16:21.416Z,13.23
2022-09-28T19:20:26.793Z,13.88
2022-09-28T19:24:31.614Z,11.07
2022-09-28T19:28:43.198Z,11.48
2022-09-28T19:32:51.610Z,8.52
2022-09-28T19:36:57.981Z,10.25
2022-09-28T19:41:01.682Z,8.47
2022-09-28T19:45:37.939Z,8.80
2022-09-28T19:49:46.145Z,7.68
2022-09-28T19:53:52.522Z,8.52
2022-09-28T19:58:02.766Z,10.07
2022-09-28T20:02:07.270Z,8.10
2022-09-28T20:06:17.238Z,7.25
2022-09-28T20:10:25.503Z,9.98
2022-09-28T20:14:40.265Z,6.25
2022-09-28T20:18:53.136Z,7.68
2022-09-28T20:22:58.430Z,7.82
2022-09-28T20:27:02.541Z,12.43
2022-09-28T20:31:26.704Z,8.25
2022-09-28T20:35:34.874Z,9.77
2022-09-28T20:39:41.583Z,7.63
2022-09-28T20:43:53.955Z,7.90
2022-09-28T20:48:04.130Z,8.35
2022-09-28T20:52:07.644Z,7.00
2022-09-28T20:56:14.044Z,8.10
2022-09-28T21:00:17.485Z,11.23
2022-09-28T21:04:25.263Z,11.27
2022-09-28T21:08:29.008Z,11.27
2022-09-28T21:12:34.254Z,9.73
2022-09-28T21:16:40.830Z,10.00
2022-09-28T21:20:51.917Z,12.07
2022-09-28T21:24:56.719Z,8.23
2022-09-28T21:29:13.246Z,13.07
2022-09-28T21:33:16.037Z,10.10
2022-09-28T21:37:20.999Z,8.25
2022-09-28T21:41:25.402Z,7.82
2022-09-28T21:45:28.716Z,8.77
2022-09-28T21:49:32.924Z,9.82
2022-09-28T21:53:38.465Z,7.25
2022-09-28T21:57:41.115Z,6.75
2022-09-28T22:01:44.525Z,10.13
2022-09-28T22:05:52.190Z,8.05
2022-09-28T22:09:59.143Z,8.43
2022-09-28T22:14:02.372Z,8.40
2022-09-28T22:18:05.086Z,8.18
2022-09-28T22:22:09.836Z,10.43
2022-09-28T22:26:19.469Z,9.73
2022-09-28T22:30:22.131Z,7.57
2022-09-28T22:34:28.103Z,9.65
2022-09-28T22:38:32.742Z,6.50
2022-09-28T22:42:35.447Z,8.57
2022-09-28T22:46:38.242Z,9.40
2022-09-28T22:50:51.907Z,9.70
2022-09-28T22:54:56.074Z,7.85
2022-09-28T22:58:59.186Z,7.07
2022-09-28T23:03:03.741Z,7.25
2022-09-28T23:07:07.468Z,6.25
2022-09-28T23:11:10.585Z,5.40
2022-09-28T23:15:14.334Z,5.07
2022-09-28T23:19:18.597Z,6.13
2022-09-28T23:23:22.190Z,6.22
2022-09-28T23:27:25.328Z,6.43
2022-09-28T23:31:31.984Z,8.05
2022-09-28T23:39:37.345Z,7.15
2022-09-28T23:43:42.713Z,5.32
2022-09-28T23:47:45.845Z,7.07
2022-09-28T23:51:49.005Z,10.93
2022-09-28T23:55:52.443Z,5.13
2022-09-28T23:59:56.025Z,6.57
